Time;durP1;ratioP1;P1;durP2;ratioP2;P2;SDS_P1;SDS_P2;PMS_P1;PMS_P2;Temp;Humidity;BMP_temperature;BMP_pressure;BME280_temperature;BME280_humidity;BME280_pressure;Samples;Min_cycle;Max_cycle;Signal;HPM_P1;HPM_P2
2022/11/22 00:00:03;;;;;;;17.13;5.85;;;;;;;7.74;70.26;97168.38;5275140;28;20093;-72
2022/11/22 00:02:55;;;;;;;15.98;6.15;;;;;;;7.77;70.27;97160.94;5275377;28;20058;-72
2022/11/22 00:05:45;;;;;;;16.88;6.82;;;;;;;7.77;70.46;97162.75;5277608;28;20169;-72
2022/11/22 00:08:35;;;;;;;16.00;7.18;;;;;;;7.67;70.20;97160.31;5277619;28;20537;-73
2022/11/22 00:11:25;;;;;;;14.65;7.43;;;;;;;7.77;70.64;97149.56;5276380;28;20082;-72
2022/11/22 00:14:15;;;;;;;17.58;7.13;;;;;;;7.50;71.69;97135.00;5279096;28;20472;-72
2022/11/22 00:17:05;;;;;;;17.98;6.70;;;;;;;7.58;70.35;97137.59;5272732;28;20051;-72
2022/11/22 00:19:55;;;;;;;15.18;6.65;;;;;;;7.37;71.91;97116.25;5274600;28;20161;-72
2022/11/22 00:22:45;;;;;;;13.80;6.43;;;;;;;7.35;72.05;97108.53;5280958;28;20044;-72
2022/11/22 00:25:36;;;;;;;16.77;7.07;;;;;;;7.45;72.30;97119.69;5275610;28;20058;-72
2022/11/22 00:28:25;;;;;;;24.13;7.13;;;;;;;7.61;71.84;97123.25;5280188;28;20059;-72
2022/11/22 00:31:15;;;;;;;16.17;6.30;;;;;;;7.57;71.07;97109.59;5273316;28;20129;-72
2022/11/22 00:34:05;;;;;;;12.52;6.20;;;;;;;7.67;70.58;97114.66;5273419;28;20058;-72
2022/11/22 00:36:55;;;;;;;16.55;6.30;;;;;;;7.80;71.17;97107.00;5274864;28;20501;-72
2022/11/22 00:39:46;;;;;;;15.43;6.00;;;;;;;7.62;71.45;97106.44;5275121;28;20056;-72
2022/11/22 00:42:36;;;;;;;13.68;6.07;;;;;;;7.73;71.01;97111.34;5275211;28;20060;-72
2022/11/22 00:45:25;;;;;;;14.15;5.28;;;;;;;7.75;70.59;97130.47;5270042;28;20571;-72
2022/11/22 00:48:16;;;;;;;10.32;5.55;;;;;;;7.77;70.83;97133.72;5275386;28;20490;-72
2022/11/22 00:51:06;;;;;;;9.95;5.57;;;;;;;7.76;70.85;97137.38;5272448;28;20051;-72
2022/11/22 00:53:56;;;;;;;16.13;6.00;;;;;;;7.77;70.53;97142.47;5275994;28;20047;-72
2022/11/22 00:56:46;;;;;;;11.57;5.65;;;;;;;7.92;70.68;97145.22;5275819;28;20180;-73
2022/11/22 00:59:35;;;;;;;11.57;5.60;;;;;;;7.66;70.41;97150.75;5275489;28;20512;-72
2022/11/22 01:02:25;;;;;;;10.00;4.95;;;;;;;7.74;70.63;97153.34;5273973;28;20532;-72
2022/11/22 01:05:16;;;;;;;15.10;5.38;;;;;;;7.47;70.90;97162.53;5275872;28;20051;-72
2022/11/22 01:08:07;;;;;;;13.77;5.18;;;;;;;7.72;70.93;97159.81;5272769;28;20135;-73
2022/11/22 01:10:58;;;;;;;10.65;5.18;;;;;;;7.81;70.95;97177.25;5268479;28;20055;-72
2022/11/22 01:13:48;;;;;;;9.90;5.35;;;;;;;7.84;71.22;97176.09;5270811;28;20090;-72
2022/11/22 01:16:38;;;;;;;14.60;5.63;;;;;;;7.90;70.62;97186.78;5279089;28;20076;-72
2022/11/22 01:19:29;;;;;;;14.82;5.28;;;;;;;7.83;70.88;97188.47;5271107;28;20113;-72
2022/11/22 01:22:19;;;;;;;13.00;5.03;;;;;;;7.94;71.38;97188.06;5275296;28;20513;-72
2022/11/22 01:25:09;;;;;;;16.77;5.28;;;;;;;7.98;71.01;97183.31;5273881;28;20051;-73
2022/11/22 01:27:59;;;;;;;12.52;5.22;;;;;;;8.05;71.32;97178.16;5274068;28;20640;-72
2022/11/22 01:30:51;;;;;;;9.18;5.18;;;;;;;8.04;69.61;97190.50;5271673;28;20048;-72
2022/11/22 01:33:41;;;;;;;13.15;5.40;;;;;;;7.93;70.51;97175.88;5272835;28;20513;-72
2022/11/22 01:36:30;;;;;;;15.57;5.55;;;;;;;8.10;70.61;97191.66;5274734;28;20079;-71
2022/11/22 01:39:21;;;;;;;9.18;4.78;;;;;;;8.14;69.79;97188.47;5273169;28;20048;-72
2022/11/22 01:42:11;;;;;;;12.35;5.07;;;;;;;8.16;70.41;97177.75;5280279;28;20085;-72
2022/11/22 01:45:29;;;;;;;12.15;5.40;;;;;;;8.15;70.57;97176.13;5273936;28;20603;-72
2022/11/22 01:48:50;;;;;;;13.07;5.18;;;;;;;8.09;70.44;97190.84;5276447;28;20599;-73
2022/11/22 01:51:45;;;;;;;12.60;4.88;;;;;;;8.08;70.89;97185.72;5272718;28;20421;-72
2022/11/22 01:54:39;;;;;;;15.45;5.28;;;;;;;8.00;69.92;97166.28;5275403;28;20063;-73
2022/11/22 01:57:33;;;;;;;10.85;4.90;;;;;;;8.16;71.09;97181.22;5274002;28;20050;-73
2022/11/22 02:00:23;;;;;;;8.77;4.97;;;;;;;8.09;70.57;97184.72;5272243;28;20059;-72
2022/11/22 02:03:15;;;;;;;13.13;5.63;;;;;;;8.10;70.68;97194.28;5278608;28;20070;-72
2022/11/22 02:06:06;;;;;;;14.20;5.55;;;;;;;7.99;72.25;97193.69;5270155;28;20059;-72
2022/11/22 02:09:02;;;;;;;11.70;5.47;;;;;;;8.09;71.24;97195.28;5271468;28;20527;-72
2022/11/22 02:11:55;;;;;;;13.77;5.18;;;;;;;8.17;71.14;97195.25;5268663;28;20420;-72
2022/11/22 02:14:45;;;;;;;12.40;4.90;;;;;;;8.12;71.55;97179.09;5275297;28;20505;-72
2022/11/22 02:17:35;;;;;;;12.82;4.78;;;;;;;8.13;70.59;97196.59;5273546;28;20172;-72
2022/11/22 02:20:26;;;;;;;9.75;4.35;;;;;;;8.16;71.15;97197.06;5273087;28;20070;-72
2022/11/22 02:23:48;;;;;;;11.20;4.35;;;;;;;8.12;70.81;97194.94;5273914;28;20046;-72
2022/11/22 02:26:38;;;;;;;17.17;6.50;;;;;;;7.90;72.06;97199.97;5275253;28;20082;-72
2022/11/22 02:29:30;;;;;;;16.15;6.65;;;;;;;7.91;71.47;97201.63;5275700;28;20063;-72
2022/11/22 02:32:20;;;;;;;15.13;6.60;;;;;;;7.96;72.15;97198.47;5278384;28;20163;-72
2022/11/22 02:35:26;;;;;;;16.73;6.50;;;;;;;7.83;71.10;97193.75;5275298;28;20054;-72
2022/11/22 02:38:20;;;;;;;15.32;6.47;;;;;;;7.78;70.94;97209.25;5270772;28;20044;-72
2022/11/22 02:41:11;;;;;;;12.63;6.57;;;;;;;7.89;71.37;97227.38;5275512;28;20048;-73
2022/11/22 02:44:01;;;;;;;15.70;6.68;;;;;;;7.82;71.54;97201.84;5274983;28;20508;-72
2022/11/22 02:46:53;;;;;;;16.48;6.82;;;;;;;7.90;72.50;97223.72;5269653;28;20074;-72
2022/11/22 02:49:43;;;;;;;15.00;6.40;;;;;;;7.98;70.58;97220.25;5276061;28;20044;-72
2022/11/22 02:52:33;;;;;;;11.68;6.07;;;;;;;7.87;71.27;97218.78;5278280;28;20052;-72
2022/11/22 02:55:23;;;;;;;12.73;5.88;;;;;;;7.84;72.47;97219.13;5284061;28;20079;-72
2022/11/22 02:58:13;;;;;;;13.35;6.50;;;;;;;7.88;72.07;97214.31;5279964;28;20106;-72
2022/11/22 03:01:03;;;;;;;12.00;5.55;;;;;;;7.76;71.61;97204.16;5275522;28;20086;-72
2022/11/22 03:03:54;;;;;;;12.00;5.93;;;;;;;7.75;71.45;97209.59;5282758;28;20096;-72
2022/11/22 03:06:43;;;;;;;9.95;5.40;;;;;;;7.66;71.50;97208.81;5280912;28;20398;-72
2022/11/22 03:09:33;;;;;;;13.80;5.20;;;;;;;7.69;71.91;97221.66;5277680;28;20105;-72
2022/11/22 03:12:23;;;;;;;9.77;5.53;;;;;;;7.69;71.71;97226.09;5277543;28;20582;-72
2022/11/22 03:15:13;;;;;;;11.98;4.82;;;;;;;7.54;71.03;97231.22;5276612;28;20180;-72
2022/11/22 03:18:03;;;;;;;12.30;4.82;;;;;;;7.44;71.17;97227.97;5277065;28;20405;-72
2022/11/22 03:20:53;;;;;;;9.18;4.88;;;;;;;7.37;71.34;97224.34;5280261;28;20580;-73
2022/11/22 03:23:43;;;;;;;11.38;4.35;;;;;;;7.39;71.07;97232.94;5280234;28;20123;-72
2022/11/22 03:26:34;;;;;;;4.97;2.50;;;;;;;7.41;71.30;97231.75;5279202;28;20113;-73
2022/11/22 03:29:24;;;;;;;8.02;2.67;;;;;;;7.24;70.68;97238.84;5278963;28;20058;-72
2022/11/22 03:32:14;;;;;;;3.75;2.47;;;;;;;7.20;72.01;97242.81;5279402;28;20104;-72
2022/11/22 03:35:04;;;;;;;5.22;2.40;;;;;;;7.16;71.13;97241.50;5274510;28;20048;-72
2022/11/22 03:37:54;;;;;;;5.13;2.30;;;;;;;7.09;71.12;97242.34;5274804;28;20059;-72
2022/11/22 03:40:47;;;;;;;4.25;2.58;;;;;;;6.98;71.62;97230.28;5278448;28;20073;-72
2022/11/22 03:43:37;;;;;;;4.05;2.30;;;;;;;7.00;71.29;97252.03;5278096;28;20056;-72
2022/11/22 03:46:27;;;;;;;4.60;2.42;;;;;;;7.00;71.07;97252.84;5276657;28;20410;-72
2022/11/22 03:49:17;;;;;;;4.38;2.45;;;;;;;6.96;71.62;97261.25;5276152;28;20048;-72
2022/11/22 03:52:07;;;;;;;5.25;2.47;;;;;;;6.94;71.01;97263.22;5279765;28;20436;-72
2022/11/22 03:54:57;;;;;;;7.13;2.88;;;;;;;6.93;71.66;97246.59;5272825;28;20046;-72
2022/11/22 03:57:47;;;;;;;4.95;2.33;;;;;;;6.99;71.41;97261.75;5268476;28;20043;-72
2022/11/22 04:00:37;;;;;;;6.43;3.20;;;;;;;7.02;71.75;97260.63;5276604;28;20071;-73
2022/11/22 04:03:28;;;;;;;4.97;3.00;;;;;;;7.00;71.97;97255.50;5277951;28;20098;-72
2022/11/22 04:06:18;;;;;;;5.55;3.20;;;;;;;6.82;71.37;97246.91;5274635;28;20047;-72
2022/11/22 04:09:07;;;;;;;6.85;3.15;;;;;;;7.07;72.46;97258.31;5279247;28;20054;-72
2022/11/22 04:11:58;;;;;;;7.65;3.20;;;;;;;6.90;71.90;97251.38;5274903;28;20497;-72
2022/11/22 04:15:06;;;;;;;9.93;3.15;;;;;;;6.90;71.94;97267.19;5274255;28;20043;-72
2022/11/22 04:17:56;;;;;;;7.90;3.35;;;;;;;6.80;71.82;97277.88;5271668;28;20436;-72
2022/11/22 04:27:08;;;;;;;5.78;2.75;;;;;;;6.67;71.61;97264.34;5264656;28;20460;-72
2022/11/22 04:29:58;;;;;;;5.13;2.70;;;;;;;6.72;72.28;97268.16;5270299;28;20426;-72
2022/11/22 04:32:51;;;;;;;6.22;2.30;;;;;;;6.65;72.13;97272.38;5275674;28;20501;-72
2022/11/22 04:35:43;;;;;;;8.75;3.15;;;;;;;6.52;71.58;97264.13;5277384;28;20047;-72
2022/11/22 04:38:33;;;;;;;4.43;2.58;;;;;;;6.55;71.66;97272.53;5275903;28;20445;-72
2022/11/22 04:41:23;;;;;;;7.47;3.20;;;;;;;6.56;71.70;97276.00;5276888;28;20430;-72
2022/11/22 04:53:48;;;;;;;7.40;3.03;;;;;;;6.75;72.42;97280.16;5274684;28;20116;-72
2022/11/22 04:56:38;;;;;;;10.23;2.45;;;;;;;6.75;72.55;97269.63;5274292;28;20594;-73
2022/11/22 04:59:28;;;;;;;6.18;3.10;;;;;;;6.65;71.66;97259.22;5266587;28;20055;-72
2022/11/22 05:02:19;;;;;;;8.18;3.92;;;;;;;6.57;71.71;97275.84;5273279;28;20616;-72
2022/11/22 05:05:09;;;;;;;9.73;2.60;;;;;;;6.46;71.53;97255.09;5279078;28;20044;-72
2022/11/22 05:07:59;;;;;;;8.73;2.95;;;;;;;6.40;71.92;97255.72;5266429;28;20078;-72
2022/11/22 05:10:55;;;;;;;5.93;2.58;;;;;;;6.44;71.98;97272.84;5272577;28;20576;-73
2022/11/22 05:13:45;;;;;;;8.85;2.65;;;;;;;6.44;71.38;97272.03;5276580;28;20044;-74
2022/11/22 05:16:35;;;;;;;4.80;2.45;;;;;;;6.36;72.28;97270.19;5276382;28;20537;-76
2022/11/22 05:19:25;;;;;;;6.03;2.58;;;;;;;6.62;72.10;97271.88;5272694;28;20048;-75
2022/11/22 05:22:15;;;;;;;7.65;2.90;;;;;;;6.28;71.87;97272.78;5275101;28;20067;-75
2022/11/22 05:25:06;;;;;;;4.88;2.20;;;;;;;6.21;72.28;97279.66;5270747;28;20048;-77
2022/11/22 05:27:56;;;;;;;10.77;2.17;;;;;;;6.11;72.00;97288.50;5270471;28;20482;-75
2022/11/22 05:30:46;;;;;;;4.68;1.80;;;;;;;6.07;72.15;97302.97;5273554;28;20047;-74
2022/11/22 05:33:38;;;;;;;7.57;2.70;;;;;;;6.19;71.82;97303.53;5273785;28;20086;-72
2022/11/22 05:36:31;;;;;;;7.35;2.15;;;;;;;6.24;71.58;97303.03;5279574;28;20063;-75
2022/11/22 05:39:21;;;;;;;5.20;2.30;;;;;;;6.25;71.50;97302.03;5276641;28;20101;-74
2022/11/22 05:42:11;;;;;;;5.13;2.13;;;;;;;6.20;71.94;97299.91;5275641;28;20071;-74
2022/11/22 05:45:01;;;;;;;6.25;2.05;;;;;;;6.18;71.75;97301.84;5272582;28;20141;-73
2022/11/22 05:47:52;;;;;;;6.05;1.92;;;;;;;6.05;72.13;97290.94;5263424;28;20468;-72
2022/11/22 05:50:42;;;;;;;7.30;2.38;;;;;;;6.26;71.99;97311.63;5273604;28;20055;-73
2022/11/22 05:53:32;;;;;;;8.60;2.42;;;;;;;6.32;71.99;97316.22;5267214;28;20055;-73
2022/11/22 05:56:23;;;;;;;9.05;2.55;;;;;;;6.40;72.50;97305.75;5274763;28;20145;-72
2022/11/22 05:59:13;;;;;;;8.65;2.03;;;;;;;6.50;72.20;97316.97;5272341;28;20437;-73
2022/11/22 06:02:03;;;;;;;9.40;2.72;;;;;;;6.49;72.23;97315.31;5272040;28;20056;-73
2022/11/22 06:04:53;;;;;;;12.40;3.33;;;;;;;6.51;72.42;97307.25;5273769;28;20208;-73
2022/11/22 06:07:43;;;;;;;11.65;3.15;;;;;;;6.58;72.95;97303.00;5274848;28;20693;-73
2022/11/22 06:10:36;;;;;;;14.02;3.38;;;;;;;6.71;73.68;97324.44;5270598;28;20051;-70
2022/11/22 06:13:26;;;;;;;9.55;3.47;;;;;;;6.96;73.22;97333.22;5264255;28;20101;-76
2022/11/22 06:16:16;;;;;;;12.27;3.35;;;;;;;7.07;72.29;97335.53;5244169;28;20421;-74
2022/11/22 06:19:06;;;;;;;14.95;3.92;;;;;;;7.09;71.82;97343.31;5242497;28;20047;-72
2022/11/22 06:21:56;;;;;;;14.35;3.80;;;;;;;7.11;72.33;97346.59;5243805;28;20548;-74
2022/11/22 06:24:46;;;;;;;22.45;3.80;;;;;;;7.13;72.10;97346.44;5244281;28;20169;-70
2022/11/22 06:27:36;;;;;;;11.40;3.28;;;;;;;7.00;72.43;97346.91;5244309;28;20546;-70
2022/11/22 06:30:26;;;;;;;9.45;2.85;;;;;;;6.91;72.12;97350.50;5243734;28;20049;-71
2022/11/22 06:33:15;;;;;;;13.23;2.97;;;;;;;6.83;72.38;97351.31;5243341;28;20094;-73
2022/11/22 06:36:12;;;;;;;10.73;3.60;;;;;;;6.81;71.67;97345.38;5244076;28;20321;-75
2022/11/22 06:39:02;;;;;;;7.90;3.45;;;;;;;6.28;75.41;97368.34;5243872;28;20049;-71
2022/11/22 06:41:53;;;;;;;16.63;3.83;;;;;;;6.69;72.57;97375.59;5244018;28;20060;-71
2022/11/22 06:44:43;;;;;;;10.13;4.68;;;;;;;6.82;73.08;97370.72;5243676;28;20059;-73
2022/11/22 06:47:32;;;;;;;9.68;5.57;;;;;;;6.75;72.86;97380.25;5244145;28;20426;-70
2022/11/22 06:50:22;;;;;;;26.75;9.85;;;;;;;6.74;73.15;97394.41;5243557;28;20099;-73
2022/11/22 06:53:12;;;;;;;25.27;8.52;;;;;;;6.65;72.90;97382.19;5243876;28;20059;-70
2022/11/22 06:56:28;;;;;;;25.98;8.52;;;;;;;6.68;72.08;97406.41;5243675;28;20490;-69
2022/11/22 06:59:18;;;;;;;28.10;7.78;;;;;;;6.66;73.22;97413.66;5243657;28;20055;-70
2022/11/22 07:02:10;;;;;;;20.95;7.15;;;;;;;6.63;72.16;97411.31;5271040;28;20064;-70
2022/11/22 07:05:00;;;;;;;16.10;6.55;;;;;;;6.63;72.28;97424.50;5243676;28;20059;-70
2022/11/22 07:08:11;;;;;;;25.70;7.00;;;;;;;6.62;71.91;97419.38;5243237;28;20109;-70
2022/11/22 07:11:15;;;;;;;15.82;5.80;;;;;;;6.65;71.96;97425.16;5243468;28;20056;-70
2022/11/22 07:14:05;;;;;;;17.13;6.25;;;;;;;6.63;72.24;97418.41;5243804;28;20141;-69
2022/11/22 07:16:58;;;;;;;16.90;5.60;;;;;;;6.65;72.06;97419.88;5243747;28;20419;-72
2022/11/22 07:19:48;;;;;;;11.93;5.30;;;;;;;6.73;72.30;97435.72;5243244;28;20075;-70
2022/11/22 07:22:38;;;;;;;12.68;4.70;;;;;;;6.75;71.96;97446.09;5243077;28;20135;-73
2022/11/22 07:25:28;;;;;;;13.55;4.68;;;;;;;6.67;72.26;97438.16;5242794;28;20049;-73
2022/11/22 07:28:18;;;;;;;16.90;3.85;;;;;;;6.64;71.82;97430.59;5243846;28;20048;-69
2022/11/22 07:31:11;;;;;;;8.55;3.70;;;;;;;6.72;72.77;97442.00;5247158;28;20153;-70
2022/11/22 07:34:01;;;;;;;18.05;4.10;;;;;;;6.55;72.36;97433.16;5247121;28;20053;-72
2022/11/22 07:36:51;;;;;;;16.02;4.68;;;;;;;6.67;71.90;97449.53;5246596;28;20098;-75
2022/11/22 07:39:48;;;;;;;17.40;4.45;;;;;;;6.77;72.88;97459.94;5246934;28;20047;-70
2022/11/22 07:42:38;;;;;;;13.55;4.28;;;;;;;6.83;72.16;97468.06;5246989;28;20055;-70
2022/11/22 07:45:29;;;;;;;15.90;4.20;;;;;;;6.90;72.86;97460.34;5274583;28;20060;-72
2022/11/22 07:48:19;;;;;;;19.40;3.75;;;;;;;6.92;71.72;97471.56;5246785;28;20094;-70
2022/11/22 07:51:09;;;;;;;16.13;4.03;;;;;;;7.01;73.04;97473.22;5246504;28;20056;-72
2022/11/22 07:53:59;;;;;;;17.55;4.22;;;;;;;7.11;72.03;97470.47;5245644;28;20110;-70
2022/11/22 07:56:49;;;;;;;16.77;7.93;;;;;;;7.14;72.70;97480.69;5246747;28;20224;-69
2022/11/22 07:59:39;;;;;;;141.30;51.63;;;;;;;7.19;72.30;97478.41;5246635;28;20054;-72
2022/11/22 08:02:29;;;;;;;26.48;10.43;;;;;;;7.14;72.74;97479.88;5246818;28;20140;-69
2022/11/22 08:05:19;;;;;;;16.30;5.55;;;;;;;7.34;71.45;97477.78;5245585;28;20048;-70
2022/11/22 08:08:09;;;;;;;16.88;6.57;;;;;;;7.33;71.54;97476.97;5245141;28;20063;-70
2022/11/22 08:10:59;;;;;;;18.90;4.50;;;;;;;7.54;71.70;97476.50;5246444;28;20075;-69
2022/11/22 08:13:50;;;;;;;17.67;5.03;;;;;;;7.64;71.48;97492.19;5246724;28;20048;-69
2022/11/22 08:16:40;;;;;;;16.50;6.15;;;;;;;7.41;71.52;97479.63;5246579;28;20058;-69
2022/11/22 08:19:30;;;;;;;19.23;5.60;;;;;;;7.46;71.98;97490.53;5246105;28;20185;-70
2022/11/22 08:22:20;;;;;;;18.33;7.60;;;;;;;7.46;72.01;97484.41;5245012;28;20158;-73
2022/11/22 08:25:13;;;;;;;21.40;9.13;;;;;;;7.46;72.51;97487.06;5244970;28;20067;-72
2022/11/22 08:28:03;;;;;;;18.17;9.05;;;;;;;7.26;72.69;97483.88;5245961;28;20572;-74
2022/11/22 08:31:07;;;;;;;21.92;8.88;;;;;;;7.29;73.46;97478.28;5230598;28;20556;-73
2022/11/22 08:33:57;;;;;;;21.50;8.57;;;;;;;7.44;72.58;97491.66;5245871;28;20064;-71
2022/11/22 08:36:46;;;;;;;13.60;7.22;;;;;;;7.51;72.59;97484.75;5245544;28;20048;-73
2022/11/22 08:39:36;;;;;;;20.30;8.57;;;;;;;7.51;73.25;97480.28;5245397;28;20048;-69
2022/11/22 08:42:26;;;;;;;22.13;9.25;;;;;;;7.57;72.66;97478.00;5245595;28;20059;-70
2022/11/22 08:45:17;;;;;;;20.02;8.50;;;;;;;7.55;72.03;97480.81;5245976;28;20193;-69
2022/11/22 08:48:07;;;;;;;16.40;7.82;;;;;;;7.52;72.82;97481.16;5245335;28;20461;-71
2022/11/22 08:51:03;;;;;;;16.88;8.18;;;;;;;7.65;72.70;97486.78;5245146;28;20078;-71
2022/11/22 08:53:53;;;;;;;17.15;7.85;;;;;;;7.79;73.26;97469.47;5245561;28;20086;-73
2022/11/22 08:56:43;;;;;;;21.17;10.85;;;;;;;7.90;72.04;97477.06;5245177;28;20054;-72
2022/11/22 08:59:34;;;;;;;22.80;10.25;;;;;;;7.95;72.14;97482.69;5245324;28;20051;-70
2022/11/22 09:02:24;;;;;;;22.50;10.93;;;;;;;7.95;72.57;97476.59;5244264;28;20059;-73
2022/11/22 09:05:14;;;;;;;23.58;11.98;;;;;;;7.71;73.97;97464.19;5246089;28;20052;-70
2022/11/22 09:08:04;;;;;;;25.42;9.98;;;;;;;8.16;73.02;97460.25;5245489;28;20057;-72
2022/11/22 09:11:13;;;;;;;20.13;8.95;;;;;;;8.02;72.46;97453.81;5245848;28;20048;-74
2022/11/22 09:14:02;;;;;;;19.05;7.65;;;;;;;8.13;72.46;97444.72;5248944;28;20139;-73
2022/11/22 09:16:53;;;;;;;16.27;8.05;;;;;;;8.10;73.20;97452.97;5248349;28;20580;-73
2022/11/22 09:19:43;;;;;;;20.85;9.10;;;;;;;8.31;72.36;97455.09;5245902;28;20056;-69
2022/11/22 09:22:33;;;;;;;18.38;7.57;;;;;;;8.43;72.88;97451.97;5245076;28;20144;-70
2022/11/22 09:25:23;;;;;;;16.02;8.00;;;;;;;8.41;72.39;97463.69;5244952;28;20059;-70
2022/11/22 09:28:13;;;;;;;24.05;10.55;;;;;;;8.65;71.63;97470.78;5244537;28;20573;-74
2022/11/22 09:31:08;;;;;;;23.67;10.63;;;;;;;8.69;72.06;97472.06;5243591;28;20419;-73
2022/11/22 09:33:58;;;;;;;20.77;9.38;;;;;;;8.68;70.98;97470.44;5243716;28;20126;-71
2022/11/22 09:36:48;;;;;;;20.67;7.95;;;;;;;8.61;71.09;97454.44;5244442;28;20074;-72
2022/11/22 09:39:38;;;;;;;19.58;9.27;;;;;;;8.82;71.36;97488.22;5243419;28;20178;-73
2022/11/22 09:42:48;;;;;;;22.73;9.52;;;;;;;8.80;71.69;97489.38;5271968;28;20135;-70
2022/11/22 09:45:56;;;;;;;20.00;7.70;;;;;;;8.99;71.63;97498.75;5244801;28;20083;-75
2022/11/22 09:49:00;;;;;;;23.92;8.57;;;;;;;9.12;71.37;97499.03;5244308;28;20071;-70
2022/11/22 09:51:58;;;;;;;18.08;6.70;;;;;;;9.22;71.23;97497.00;5243904;28;20189;-69
2022/11/22 09:54:54;;;;;;;21.85;6.72;;;;;;;9.37;69.87;97502.38;5244616;28;20127;-71
2022/11/22 09:57:50;;;;;;;20.83;7.07;;;;;;;9.40;69.76;97502.03;5244471;28;20052;-70
2022/11/22 10:00:42;;;;;;;17.75;6.65;;;;;;;9.27;69.20;97486.75;5244176;28;20040;-70
2022/11/22 10:03:58;;;;;;;22.95;6.63;;;;;;;9.48;70.15;97503.84;5244274;28;20094;-70
2022/11/22 10:06:53;;;;;;;14.80;5.72;;;;;;;9.52;68.45;97505.13;5244201;28;20075;-69
2022/11/22 10:10:02;;;;;;;25.50;7.47;;;;;;;9.50;68.71;97526.47;5243984;28;20052;-72
2022/11/22 10:13:12;;;;;;;24.63;6.30;;;;;;;9.48;69.08;97514.44;5244166;28;20073;-71
2022/11/22 10:16:13;;;;;;;14.70;5.55;;;;;;;9.27;69.62;97529.06;5243151;28;20446;-72
2022/11/22 10:19:13;;;;;;;18.70;5.43;;;;;;;9.37;70.22;97529.69;5243979;28;20048;-70
2022/11/22 10:22:10;;;;;;;16.30;5.30;;;;;;;9.33;69.55;97532.84;5243925;28;20075;-70
2022/11/22 10:25:11;;;;;;;27.05;5.65;;;;;;;9.21;70.29;97529.75;5243302;28;20154;-72
2022/11/22 10:28:13;;;;;;;12.63;5.30;;;;;;;8.98;70.63;97519.09;5243964;28;20075;-71
2022/11/22 10:31:34;;;;;;;10.90;4.72;;;;;;;9.24;70.04;97523.28;5244114;28;20045;-71
2022/11/22 10:35:02;;;;;;;13.43;4.10;;;;;;;9.40;69.71;97537.28;5244027;28;20177;-71
2022/11/22 10:37:55;;;;;;;17.38;4.00;;;;;;;9.54;68.64;97535.72;5243574;28;20521;-71
2022/11/22 10:40:53;;;;;;;12.88;4.05;;;;;;;9.57;68.38;97534.53;5244243;28;20068;-71
2022/11/22 10:43:58;;;;;;;15.80;4.55;;;;;;;9.38;69.17;97533.97;5244484;28;20388;-71
2022/11/22 10:47:07;;;;;;;13.30;3.80;;;;;;;9.61;67.96;97547.25;5244541;28;20222;-72
2022/11/22 10:50:19;;;;;;;13.13;3.97;;;;;;;9.75;67.52;97542.22;5243556;28;20059;-71
2022/11/22 10:53:31;;;;;;;18.15;3.88;;;;;;;9.93;66.53;97541.94;5243697;28;20129;-71
2022/11/22 10:56:28;;;;;;;18.38;4.05;;;;;;;9.84;67.35;97541.19;5243827;28;20079;-71
2022/11/22 10:59:29;;;;;;;15.70;3.17;;;;;;;9.96;67.73;97531.81;5243815;28;20056;-71
2022/11/22 11:02:44;;;;;;;9.88;3.78;;;;;;;10.10;66.77;97530.28;5243733;28;20150;-71
2022/11/22 11:05:45;;;;;;;13.80;4.07;;;;;;;10.22;66.14;97536.78;5247815;28;20064;-71
2022/11/22 11:09:01;;;;;;;17.95;3.85;;;;;;;10.20;65.97;97533.50;5247587;28;20170;-71
2022/11/22 11:12:17;;;;;;;23.20;4.50;;;;;;;10.31;66.87;97522.50;5247104;28;20048;-71
2022/11/22 11:15:26;;;;;;;13.05;4.85;;;;;;;10.33;65.96;97522.31;5247484;28;20429;-71
2022/11/22 11:18:24;;;;;;;12.75;4.43;;;;;;;10.47;65.49;97526.84;5247352;28;20091;-71
2022/11/22 11:21:15;;;;;;;10.57;3.08;;;;;;;10.51;61.78;97516.72;5247629;28;20052;-71
2022/11/22 11:24:15;;;;;;;8.85;1.80;;;;;;;10.10;60.89;97512.56;5247416;28;20056;-71
2022/11/22 11:27:08;;;;;;;7.90;1.60;;;;;;;9.98;59.92;97521.91;5246625;28;20071;-71
2022/11/22 11:30:03;;;;;;;7.95;1.10;;;;;;;10.16;60.65;97518.94;5247260;28;20052;-71
2022/11/22 11:32:55;;;;;;;11.98;3.08;;;;;;;10.34;60.91;97508.91;5247384;28;20060;-71
2022/11/22 11:35:46;;;;;;;9.50;2.08;;;;;;;10.57;59.57;97495.63;5247684;28;20071;-71
2022/11/22 11:38:47;;;;;;;8.40;1.50;;;;;;;10.56;60.06;97495.78;5247542;28;20462;-71
2022/11/22 11:41:37;;;;;;;7.18;1.67;;;;;;;10.73;58.24;97484.03;5247170;28;20060;-71
2022/11/22 11:44:35;;;;;;;6.38;1.30;;;;;;;10.72;57.87;97479.72;5247354;28;20084;-71
2022/11/22 11:47:33;;;;;;;8.68;1.30;;;;;;;10.78;58.98;97489.59;5246730;28;20056;-71
2022/11/22 11:50:27;;;;;;;10.40;1.40;;;;;;;10.75;60.04;97481.19;5246680;28;20097;-71
2022/11/22 11:53:25;;;;;;;7.57;1.25;;;;;;;10.78;58.45;97484.28;5246812;28;20062;-71
2022/11/22 11:56:30;;;;;;;6.57;1.35;;;;;;;11.14;57.45;97480.09;5247028;28;20274;-71
2022/11/22 11:59:22;;;;;;;8.73;1.83;;;;;;;10.23;60.56;97477.53;5246301;28;20099;-71
2022/11/22 12:02:20;;;;;;;11.40;1.88;;;;;;;10.53;60.98;97475.78;5246971;28;20052;-71
2022/11/22 12:05:13;;;;;;;10.82;1.60;;;;;;;10.79;58.56;97470.06;5248412;28;20156;-71
2022/11/22 12:08:30;;;;;;;12.15;2.03;;;;;;;10.86;59.75;97471.94;5246908;28;20110;-71
2022/11/22 12:11:32;;;;;;;8.82;1.70;;;;;;;10.89;59.05;97455.69;5269866;22;20056;-74
2022/11/22 12:14:25;;;;;;;8.02;1.35;;;;;;;10.68;56.99;97454.59;5182061;28;20050;-74
2022/11/22 12:17:45;;;;;;;9.85;1.02;;;;;;;10.46;55.33;97455.47;5164193;28;20591;-74
2022/11/22 12:21:16;;;;;;;10.50;1.30;;;;;;;10.41;56.24;97461.31;5163963;28;20065;-74
2022/11/22 12:24:15;;;;;;;7.88;1.38;;;;;;;10.61;56.75;97455.50;5145853;28;20069;-74
2022/11/22 12:27:25;;;;;;;6.80;1.40;;;;;;;10.68;55.28;97459.88;5158351;28;20180;-74
2022/11/22 12:30:16;;;;;;;12.70;1.65;;;;;;;10.29;56.61;97447.69;5162951;28;20053;-74
2022/11/22 12:33:14;;;;;;;7.55;1.40;;;;;;;10.53;56.26;97451.94;5164007;28;20257;-74
2022/11/22 12:36:14;;;;;;;10.40;1.25;;;;;;;10.54;56.67;97442.97;5163960;28;20109;-74
2022/11/22 12:39:10;;;;;;;4.65;1.10;;;;;;;10.53;56.51;97441.34;5163393;28;20123;-74
2022/11/22 12:42:09;;;;;;;6.47;1.05;;;;;;;10.06;57.04;97423.84;5163510;28;20188;-74
2022/11/22 12:45:14;;;;;;;6.47;0.90;;;;;;;10.68;56.34;97428.06;5163809;28;20054;-74
2022/11/22 12:48:13;;;;;;;3.45;0.95;;;;;;;10.70;55.07;97436.69;5163012;28;20102;-74
2022/11/22 12:51:17;;;;;;;7.03;0.90;;;;;;;10.71;56.35;97433.00;5162873;28;20555;-74
2022/11/22 12:54:22;;;;;;;7.35;1.13;;;;;;;10.27;54.94;97431.16;5164276;28;20487;-74
2022/11/22 12:57:36;;;;;;;5.85;1.38;;;;;;;10.34;56.53;97429.44;5163936;28;20528;-74
2022/11/22 13:00:31;;;;;;;6.15;0.88;;;;;;;10.45;56.66;97432.63;5163241;28;20551;-74
2022/11/22 13:03:28;;;;;;;7.05;1.23;;;;;;;10.30;56.05;97436.09;5163556;28;20499;-73
2022/11/22 13:06:24;;;;;;;10.20;1.40;;;;;;;10.05;56.44;97426.69;5163387;28;20677;-74
2022/11/22 13:09:20;;;;;;;10.68;1.40;;;;;;;10.29;55.78;97425.66;5162875;28;20064;-73
2022/11/22 13:12:14;;;;;;;5.78;1.55;;;;;;;9.92;56.22;97395.50;5162248;28;20216;-74
2022/11/22 13:15:05;;;;;;;8.25;1.20;;;;;;;10.29;56.42;97420.38;5163448;28;20061;-73
2022/11/22 13:17:56;;;;;;;10.13;1.02;;;;;;;10.62;54.52;97426.16;5175416;28;20118;-74
2022/11/22 13:21:13;;;;;;;7.72;1.13;;;;;;;10.62;55.57;97423.50;5162489;28;20057;-74
2022/11/22 13:24:22;;;;;;;5.00;0.70;;;;;;;10.68;55.30;97420.13;5163229;28;20065;-73
2022/11/22 13:27:33;;;;;;;4.13;0.68;;;;;;;10.28;55.48;97430.16;5161414;28;20054;-74
2022/11/22 13:30:27;;;;;;;3.90;0.60;;;;;;;10.55;55.66;97419.94;5161770;28;20152;-73
2022/11/22 13:33:24;;;;;;;8.30;0.93;;;;;;;10.21;55.51;97425.72;5162626;28;20068;-74
2022/11/22 13:36:42;;;;;;;4.13;0.95;;;;;;;10.52;55.49;97429.06;5162612;28;20061;-74
2022/11/22 13:39:36;;;;;;;7.93;1.13;;;;;;;10.56;55.07;97432.19;5175094;28;20108;-73
2022/11/22 13:42:27;;;;;;;3.95;0.80;;;;;;;10.45;55.20;97430.00;5162012;28;20050;-73
2022/11/22 13:45:22;;;;;;;3.13;0.60;;;;;;;10.45;55.87;97437.94;5163041;28;20093;-74
2022/11/22 13:48:13;;;;;;;7.35;0.93;;;;;;;10.39;56.21;97428.88;5162171;28;20061;-73
2022/11/22 13:51:05;;;;;;;4.50;0.90;;;;;;;10.14;56.32;97430.91;5174688;28;20046;-73
2022/11/22 13:54:35;;;;;;;3.47;0.68;;;;;;;10.16;56.15;97436.84;5162898;28;20098;-74
2022/11/22 13:57:39;;;;;;;8.32;1.20;;;;;;;10.39;54.86;97426.22;5162380;28;20053;-73